createdAt,value
2017-01-28T00:02:02.767Z,33
2017-01-28T00:04:35.146Z,34
2017-01-28T00:07:08.020Z,30
2017-01-28T00:09:40.861Z,33
2017-01-28T00:12:13.683Z,31
2017-01-28T00:14:46.070Z,29
2017-01-28T00:17:18.472Z,30
2017-01-28T00:19:51.306Z,32
2017-01-28T00:22:23.702Z,1
2017-01-28T00:24:56.103Z,0
2017-01-28T00:27:28.495Z,0
2017-01-28T00:30:00.900Z,0
2017-01-28T00:32:33.732Z,0
2017-01-28T00:35:06.124Z,0
2017-01-28T00:37:38.943Z,0
2017-01-28T00:40:11.355Z,0
2017-01-28T00:42:43.856Z,0
2017-01-28T00:45:16.255Z,0
2017-01-28T00:47:48.655Z,0
2017-01-28T00:50:21.180Z,0
2017-01-28T00:52:53.583Z,0
2017-01-28T00:55:25.961Z,0
2017-01-28T00:57:58.358Z,0
2017-01-28T01:00:30.783Z,0
2017-01-28T01:03:03.172Z,0
2017-01-28T01:05:36.062Z,0
2017-01-28T01:08:08.459Z,0
2017-01-28T01:10:40.861Z,0
2017-01-28T01:13:13.707Z,0
2017-01-28T01:15:46.097Z,0
2017-01-28T01:18:18.918Z,0
2017-01-28T01:20:51.322Z,0
2017-01-28T01:23:23.910Z,0
2017-01-28T01:25:56.320Z,0
2017-01-28T01:28:28.721Z,0
2017-01-28T01:31:01.105Z,0
2017-01-28T01:33:33.508Z,0
2017-01-28T01:36:05.918Z,0
2017-01-28T01:38:38.309Z,0
2017-01-28T01:41:10.705Z,0
2017-01-28T01:43:43.110Z,0
2017-01-28T01:46:15.502Z,0
2017-01-28T01:48:47.892Z,0
2017-01-28T01:51:20.283Z,0
2017-01-28T01:53:52.665Z,0
2017-01-28T01:56:25.055Z,0
2017-01-28T01:58:57.451Z,0
2017-01-28T02:01:30.310Z,0
2017-01-28T02:04:02.705Z,0
2017-01-28T02:06:35.095Z,0
2017-01-28T02:09:07.927Z,0
2017-01-28T02:11:40.323Z,0
2017-01-28T02:14:12.717Z,0
2017-01-28T02:16:45.104Z,0
2017-01-28T02:19:17.919Z,0
2017-01-28T02:21:50.327Z,0
2017-01-28T02:24:22.720Z,0
2017-01-28T02:26:55.115Z,0
2017-01-28T02:29:27.517Z,0
2017-01-28T02:31:59.904Z,0
2017-01-28T02:34:32.283Z,0
2017-01-28T02:37:05.113Z,0
2017-01-28T02:39:37.534Z,0
2017-01-28T02:42:10.353Z,0
2017-01-28T02:44:42.759Z,0
2017-01-28T02:47:15.572Z,0
2017-01-28T02:49:48.823Z,0
2017-01-28T02:52:21.624Z,0
2017-01-28T02:54:54.020Z,0
2017-01-28T02:57:26.404Z,0
2017-01-28T02:59:59.216Z,0
2017-01-28T03:02:31.614Z,0
2017-01-28T03:05:04.449Z,0
2017-01-28T03:07:36.844Z,0
2017-01-28T03:10:09.217Z,0
2017-01-28T03:12:42.032Z,0
2017-01-28T03:15:14.866Z,0
2017-01-28T03:17:47.259Z,0
2017-01-28T03:20:19.649Z,0
2017-01-28T03:22:52.039Z,0
2017-01-28T03:25:24.857Z,0
2017-01-28T03:27:57.249Z,0
2017-01-28T03:30:29.661Z,0
2017-01-28T03:33:02.068Z,0
2017-01-28T03:35:34.468Z,0
2017-01-28T03:38:07.270Z,0
2017-01-28T03:40:39.650Z,0
2017-01-28T03:43:12.045Z,0
2017-01-28T03:45:44.865Z,0
2017-01-28T03:48:17.251Z,0
2017-01-28T03:50:49.643Z,0
2017-01-28T03:53:22.467Z,0
2017-01-28T03:55:55.302Z,0
2017-01-28T03:58:27.701Z,0
2017-01-28T04:01:00.108Z,0
2017-01-28T04:03:32.483Z,0
2017-01-28T04:06:04.893Z,0
2017-01-28T04:08:37.278Z,0
2017-01-28T04:11:09.718Z,0
2017-01-28T04:13:42.126Z,0
2017-01-28T04:16:14.511Z,0
2017-01-28T04:18:47.365Z,0
2017-01-28T04:21:19.765Z,0
2017-01-28T04:23:52.160Z,0
2017-01-28T04:26:24.547Z,0
2017-01-28T04:28:56.945Z,0
2017-01-28T04:31:29.343Z,0
2017-01-28T04:34:01.728Z,0
2017-01-28T04:36:34.551Z,0
2017-01-28T04:39:06.933Z,0
2017-01-28T04:41:39.337Z,0
2017-01-28T04:44:12.132Z,0
2017-01-28T04:46:44.529Z,0
2017-01-28T04:49:16.921Z,0
2017-01-28T04:51:49.307Z,0
2017-01-28T04:54:21.705Z,0
2017-01-28T04:56:54.124Z,0
2017-01-28T04:59:26.539Z,0
2017-01-28T05:01:58.935Z,0
2017-01-28T05:04:31.328Z,0
2017-01-28T05:07:03.728Z,0
2017-01-28T05:09:36.575Z,0
2017-01-28T05:12:08.965Z,0
2017-01-28T05:14:41.810Z,0
2017-01-28T05:17:14.218Z,0
2017-01-28T05:19:46.611Z,0
2017-01-28T05:22:19.014Z,0
2017-01-28T05:24:51.406Z,0
2017-01-28T05:27:23.777Z,0
2017-01-28T05:29:56.183Z,0
2017-01-28T05:32:28.566Z,0
2017-01-28T05:35:00.970Z,0
2017-01-28T05:37:33.348Z,0
2017-01-28T05:40:05.749Z,0
2017-01-28T05:42:38.127Z,0
2017-01-28T05:45:10.535Z,0
2017-01-28T05:47:42.914Z,0
2017-01-28T05:50:15.312Z,0
2017-01-28T05:52:47.694Z,0
2017-01-28T05:55:20.518Z,0
2017-01-28T05:57:52.921Z,0
2017-01-28T06:00:25.728Z,0
2017-01-28T06:02:58.120Z,0
2017-01-28T06:05:30.537Z,0
2017-01-28T06:08:03.342Z,0
2017-01-28T06:10:35.725Z,0
2017-01-28T06:13:08.124Z,0
2017-01-28T06:15:40.943Z,0
2017-01-28T06:18:13.346Z,0
2017-01-28T06:20:46.585Z,0
2017-01-28T06:23:18.956Z,0
2017-01-28T06:25:51.775Z,0
2017-01-28T06:28:24.146Z,0
2017-01-28T06:30:56.541Z,0
2017-01-28T06:33:28.933Z,0
2017-01-28T06:36:01.951Z,0
2017-01-28T06:38:34.344Z,0
2017-01-28T06:41:06.747Z,0
2017-01-28T06:43:39.147Z,1
2017-01-28T06:46:11.937Z,1
2017-01-28T06:48:44.320Z,0
2017-01-28T06:51:17.158Z,0
2017-01-28T06:53:49.558Z,0
2017-01-28T06:56:21.957Z,1
2017-01-28T06:58:54.337Z,3
2017-01-28T07:01:26.731Z,1
2017-01-28T07:03:59.542Z,2
2017-01-28T07:06:32.393Z,3
2017-01-28T07:09:04.801Z,2
2017-01-28T07:11:37.199Z,3
2017-01-28T07:14:09.584Z,3
2017-01-28T07:16:42.401Z,4
2017-01-28T07:19:15.248Z,6
2017-01-28T07:21:48.488Z,5
2017-01-28T07:24:20.877Z,6
2017-01-28T07:26:53.269Z,6
2017-01-28T07:29:25.674Z,8
2017-01-28T07:31:58.057Z,8
2017-01-28T07:34:30.867Z,9
2017-01-28T07:37:04.118Z,9
2017-01-28T07:39:36.924Z,10
2017-01-28T07:42:09.315Z,10
2017-01-28T07:44:41.710Z,12
2017-01-28T07:47:14.110Z,13
2017-01-28T07:49:46.477Z,12
2017-01-28T07:52:18.860Z,12
2017-01-28T07:54:51.241Z,15
2017-01-28T07:57:23.652Z,15
2017-01-28T07:59:56.472Z,14
2017-01-28T08:02:28.849Z,15
2017-01-28T08:05:01.262Z,17
2017-01-28T08:07:34.094Z,15
2017-01-28T08:10:06.496Z,16
2017-01-28T08:12:38.891Z,17
2017-01-28T08:15:11.295Z,18
2017-01-28T08:17:43.715Z,18
2017-01-28T08:20:16.176Z,20
2017-01-28T08:22:48.579Z,20
2017-01-28T08:25:21.380Z,20
2017-01-28T08:27:53.776Z,20
2017-01-28T08:30:26.166Z,22
2017-01-28T08:32:58.665Z,20
2017-01-28T08:35:31.094Z,21
2017-01-28T08:38:03.909Z,22
2017-01-28T08:40:36.739Z,22
2017-01-28T08:43:09.565Z,23
2017-01-28T08:45:41.959Z,23
2017-01-28T08:48:14.832Z,23
2017-01-28T08:50:47.352Z,24
2017-01-28T08:53:19.745Z,24
2017-01-28T08:55:52.134Z,25
2017-01-28T08:58:24.559Z,26
2017-01-28T09:00:56.953Z,25
2017-01-28T09:03:29.337Z,27
2017-01-28T09:06:01.765Z,24
2017-01-28T09:08:34.171Z,25
2017-01-28T09:11:06.573Z,32
2017-01-28T09:13:39.228Z,111
2017-01-28T09:16:11.629Z,121
2017-01-28T09:18:44.023Z,32
2017-01-28T09:21:16.432Z,30
2017-01-28T09:23:48.827Z,41
2017-01-28T09:26:21.216Z,84
2017-01-28T09:28:53.600Z,33
2017-01-28T09:31:26.862Z,32
2017-01-28T09:33:59.458Z,37
2017-01-28T09:36:32.292Z,34
2017-01-28T09:39:04.682Z,82
2017-01-28T09:41:37.070Z,30
2017-01-28T09:44:09.476Z,71
2017-01-28T09:46:41.857Z,64
2017-01-28T09:49:14.467Z,30
2017-01-28T09:51:47.402Z,82
2017-01-28T09:54:19.810Z,31
2017-01-28T09:56:52.195Z,35
2017-01-28T09:59:24.602Z,85
2017-01-28T10:01:57.060Z,86
2017-01-28T10:04:29.454Z,30
2017-01-28T10:07:02.682Z,31
2017-01-28T10:09:35.943Z,31
2017-01-28T10:12:08.343Z,32
2017-01-28T10:14:41.178Z,30
2017-01-28T10:17:14.019Z,30
2017-01-28T10:19:46.416Z,30
2017-01-28T10:22:18.843Z,31
2017-01-28T10:24:51.221Z,31
2017-01-28T10:27:23.602Z,31
2017-01-28T10:29:56.013Z,30
2017-01-28T10:32:28.400Z,31
2017-01-28T10:35:00.835Z,30
2017-01-28T10:37:33.647Z,31
2017-01-28T10:40:06.053Z,30
2017-01-28T10:42:38.443Z,30
2017-01-28T10:45:10.842Z,31
2017-01-28T10:47:43.245Z,31
2017-01-28T10:50:15.632Z,31
2017-01-28T10:52:48.026Z,31
2017-01-28T10:55:20.836Z,31
2017-01-28T10:57:54.080Z,30
2017-01-28T11:00:26.889Z,30
2017-01-28T11:02:59.294Z,31
2017-01-28T11:05:31.703Z,29
2017-01-28T11:08:04.093Z,31
2017-01-28T11:10:36.497Z,30
2017-01-28T11:13:08.902Z,30
2017-01-28T11:15:41.287Z,31
2017-01-28T11:18:14.097Z,30
2017-01-28T11:20:46.916Z,31
2017-01-28T11:23:20.203Z,31
2017-01-28T11:25:53.045Z,30
2017-01-28T11:28:25.429Z,30
2017-01-28T11:30:57.816Z,30
2017-01-28T11:33:30.214Z,31
2017-01-28T11:36:02.599Z,31
2017-01-28T11:38:34.991Z,31
2017-01-28T11:41:07.381Z,32
2017-01-28T11:43:40.188Z,32
2017-01-28T11:46:12.590Z,31
2017-01-28T11:48:45.402Z,31
2017-01-28T11:51:17.831Z,32
2017-01-28T11:53:51.051Z,33
2017-01-28T11:56:23.449Z,30
2017-01-28T11:58:55.830Z,29
2017-01-28T12:01:28.258Z,32
2017-01-28T12:04:00.663Z,32
2017-01-28T12:06:33.503Z,32
2017-01-28T12:09:05.901Z,31
2017-01-28T12:11:38.733Z,30
2017-01-28T12:14:11.145Z,30
2017-01-28T12:16:43.982Z,31
2017-01-28T12:19:16.393Z,30
2017-01-28T12:21:48.785Z,29
2017-01-28T12:24:21.175Z,30
2017-01-28T12:26:53.581Z,28
2017-01-28T12:29:25.989Z,29
2017-01-28T12:31:58.373Z,29
2017-01-28T12:34:30.756Z,29
2017-01-28T12:37:03.574Z,29
2017-01-28T12:39:36.383Z,27
2017-01-28T12:42:09.207Z,27
2017-01-28T12:44:41.610Z,27
2017-01-28T12:47:14.003Z,26
2017-01-28T12:49:46.388Z,27
2017-01-28T12:52:18.767Z,54
2017-01-28T12:54:51.610Z,32
2017-01-28T12:57:24.005Z,33
2017-01-28T12:59:56.431Z,31
2017-01-28T13:02:29.252Z,51
2017-01-28T13:05:01.640Z,102
2017-01-28T13:07:34.046Z,32
2017-01-28T13:10:07.081Z,27
2017-01-28T13:12:39.907Z,25
2017-01-28T13:15:12.773Z,25
2017-01-28T13:17:45.593Z,23
2017-01-28T13:20:18.177Z,26
2017-01-28T13:22:51.107Z,25
2017-01-28T13:25:23.946Z,24
2017-01-28T13:27:56.484Z,25
2017-01-28T13:30:28.885Z,25
2017-01-28T13:33:01.299Z,23
2017-01-28T13:35:35.103Z,23
2017-01-28T13:38:07.506Z,22
2017-01-28T13:40:39.886Z,21
2017-01-28T13:43:12.289Z,21
2017-01-28T13:45:44.667Z,21
2017-01-28T13:48:17.243Z,20
2017-01-28T13:50:49.641Z,20
2017-01-28T13:53:22.027Z,21
2017-01-28T13:55:54.419Z,20
2017-01-28T13:58:26.804Z,18
2017-01-28T14:00:59.214Z,16
2017-01-28T14:03:31.607Z,21
2017-01-28T14:06:04.425Z,21
2017-01-28T14:08:36.801Z,20
2017-01-28T14:11:09.256Z,20
2017-01-28T14:13:41.654Z,19
2017-01-28T14:16:14.036Z,19
2017-01-28T14:18:46.514Z,19
2017-01-28T14:21:18.887Z,19
2017-01-28T14:23:51.297Z,20
2017-01-28T14:26:23.688Z,19
2017-01-28T14:28:56.132Z,18
2017-01-28T14:31:29.101Z,18
2017-01-28T14:34:01.489Z,17
2017-01-28T14:36:34.308Z,17
2017-01-28T14:39:09.125Z,15
2017-01-28T14:41:45.526Z,15
2017-01-28T14:44:18.531Z,15
2017-01-28T14:46:50.922Z,17
2017-01-28T14:49:23.306Z,13
2017-01-28T14:51:56.117Z,14
2017-01-28T14:54:28.511Z,13
2017-01-28T14:57:00.900Z,11
2017-01-28T14:59:33.286Z,12
2017-01-28T15:02:05.685Z,10
2017-01-28T15:04:38.085Z,10
2017-01-28T15:07:10.921Z,8
2017-01-28T15:09:43.319Z,9
2017-01-28T15:12:15.706Z,10
2017-01-28T15:14:48.137Z,7
2017-01-28T15:17:21.169Z,7
2017-01-28T15:19:53.561Z,7
2017-01-28T15:22:25.928Z,6
2017-01-28T15:24:58.344Z,5
2017-01-28T15:27:30.739Z,6
2017-01-28T15:30:03.125Z,4
2017-01-28T15:32:35.519Z,3
2017-01-28T15:35:08.319Z,3
2017-01-28T15:37:40.712Z,2
2017-01-28T15:40:13.110Z,3
2017-01-28T15:42:45.935Z,2
2017-01-28T15:45:18.317Z,3
2017-01-28T15:47:50.712Z,3
2017-01-28T15:50:23.093Z,1
2017-01-28T15:52:55.495Z,34
2017-01-28T15:55:28.307Z,43
2017-01-28T15:58:01.104Z,39
2017-01-28T16:00:34.326Z,35
2017-01-28T16:03:06.725Z,34
2017-01-28T16:05:39.124Z,36
2017-01-28T16:08:11.544Z,36
2017-01-28T16:10:43.947Z,41
2017-01-28T16:13:16.490Z,36
2017-01-28T16:15:49.773Z,41
2017-01-28T16:18:23.136Z,39
2017-01-28T16:20:55.530Z,38
2017-01-28T16:23:27.940Z,38
2017-01-28T16:26:00.768Z,38
2017-01-28T16:28:33.163Z,33
2017-01-28T16:31:05.989Z,32
2017-01-28T16:33:38.388Z,34
2017-01-28T16:36:11.207Z,38
2017-01-28T16:38:43.593Z,32
2017-01-28T16:41:15.981Z,36
2017-01-28T16:43:48.378Z,39
2017-01-28T16:46:20.794Z,36
2017-01-28T16:48:53.205Z,35
2017-01-28T16:51:25.597Z,36
2017-01-28T16:53:58.403Z,35
2017-01-28T16:56:30.803Z,35
2017-01-28T16:59:03.197Z,31
2017-01-28T17:01:36.079Z,33
2017-01-28T17:04:08.648Z,34
2017-01-28T17:06:41.041Z,32
2017-01-28T17:09:13.437Z,36
2017-01-28T17:11:46.248Z,35
2017-01-28T17:14:18.631Z,32
2017-01-28T17:16:51.033Z,32
2017-01-28T17:19:23.418Z,33
2017-01-28T17:21:56.258Z,31
2017-01-28T17:24:29.719Z,33
2017-01-28T17:27:02.141Z,33
2017-01-28T17:29:35.093Z,35
2017-01-28T17:32:07.935Z,33
2017-01-28T17:34:41.112Z,29
2017-01-28T17:37:13.552Z,29
2017-01-28T17:39:45.944Z,29
2017-01-28T17:42:18.746Z,37
2017-01-28T17:44:51.172Z,37
2017-01-28T17:47:23.967Z,37
2017-01-28T17:49:56.344Z,34
2017-01-28T17:52:28.752Z,33
2017-01-28T17:55:01.577Z,38
2017-01-28T17:57:33.972Z,34
2017-01-28T18:00:06.358Z,33
2017-01-28T18:02:39.178Z,36
2017-01-28T18:05:11.606Z,37
2017-01-28T18:07:44.414Z,32
2017-01-28T18:10:16.824Z,0
2017-01-28T18:12:49.229Z,0
2017-01-28T18:15:21.817Z,0
2017-01-28T18:17:54.198Z,0
2017-01-28T18:20:27.010Z,0
2017-01-28T18:22:59.404Z,0
2017-01-28T18:25:31.801Z,0
2017-01-28T18:28:04.198Z,0
2017-01-28T18:30:37.191Z,0
2017-01-28T18:33:09.586Z,0
2017-01-28T18:35:41.967Z,0
2017-01-28T18:38:14.345Z,0
2017-01-28T18:40:47.151Z,0
2017-01-28T18:43:19.526Z,0
2017-01-28T18:45:51.944Z,0
2017-01-28T18:48:24.767Z,0
2017-01-28T18:50:57.782Z,0
2017-01-28T18:53:30.177Z,0
2017-01-28T18:56:02.587Z,0
2017-01-28T18:58:34.963Z,0
2017-01-28T19:01:07.784Z,0
2017-01-28T19:03:40.597Z,0
2017-01-28T19:06:13.428Z,0
2017-01-28T19:08:45.822Z,0
2017-01-28T19:11:18.208Z,0
2017-01-28T19:13:50.615Z,0
2017-01-28T19:16:23.013Z,0
2017-01-28T19:18:55.418Z,0
2017-01-28T19:21:27.822Z,0
2017-01-28T19:24:00.651Z,0
2017-01-28T19:26:33.060Z,0
2017-01-28T19:29:05.462Z,0
2017-01-28T19:31:37.858Z,0
2017-01-28T19:34:10.251Z,0
2017-01-28T19:36:42.634Z,0
2017-01-28T19:39:15.026Z,0
2017-01-28T19:41:47.433Z,0
2017-01-28T19:44:19.807Z,0
2017-01-28T19:46:52.195Z,0
2017-01-28T19:49:24.586Z,0
2017-01-28T19:51:56.961Z,0
2017-01-28T19:54:29.772Z,0
2017-01-28T19:57:02.175Z,0
2017-01-28T19:59:34.566Z,0
2017-01-28T20:02:06.944Z,0
2017-01-28T20:04:39.318Z,0
2017-01-28T20:07:12.139Z,0
2017-01-28T20:09:44.527Z,0
2017-01-28T20:12:17.359Z,0
2017-01-28T20:14:49.739Z,0
2017-01-28T20:17:22.585Z,0
2017-01-28T20:19:54.990Z,0
2017-01-28T20:22:27.434Z,0
2017-01-28T20:25:00.664Z,0
2017-01-28T20:27:33.069Z,0
2017-01-28T20:30:05.458Z,0
2017-01-28T20:32:38.293Z,0
2017-01-28T20:35:10.703Z,0
2017-01-28T20:37:43.097Z,0
2017-01-28T20:40:15.485Z,0
2017-01-28T20:42:47.874Z,0
2017-01-28T20:45:20.268Z,0
2017-01-28T20:47:52.673Z,0
2017-01-28T20:50:25.061Z,0
2017-01-28T20:52:57.448Z,0
2017-01-28T20:55:30.246Z,0
2017-01-28T20:58:02.625Z,0
2017-01-28T21:00:35.024Z,0
2017-01-28T21:03:07.855Z,0
2017-01-28T21:05:40.242Z,0
2017-01-28T21:08:13.063Z,0
2017-01-28T21:10:45.924Z,0
2017-01-28T21:13:19.159Z,0
2017-01-28T21:15:51.559Z,0
2017-01-28T21:18:23.945Z,0
2017-01-28T21:20:56.354Z,0
2017-01-28T21:23:28.741Z,0
2017-01-28T21:26:01.572Z,0
2017-01-28T21:28:34.367Z,0
2017-01-28T21:31:06.769Z,0
2017-01-28T21:33:39.158Z,0
2017-01-28T21:36:11.530Z,0
2017-01-28T21:38:43.915Z,0
2017-01-28T21:41:16.308Z,0
2017-01-28T21:43:48.698Z,0
2017-01-28T21:46:21.094Z,0
2017-01-28T21:48:53.898Z,0
2017-01-28T21:51:26.305Z,0
2017-01-28T21:53:58.688Z,155
2017-01-28T21:56:31.102Z,115
2017-01-28T21:59:04.334Z,41
2017-01-28T22:01:37.158Z,36
2017-01-28T22:04:09.974Z,41
2017-01-28T22:06:42.368Z,40
2017-01-28T22:09:15.202Z,39
2017-01-28T22:11:48.024Z,41
2017-01-28T22:14:21.348Z,38
2017-01-28T22:16:54.686Z,38
2017-01-28T22:19:29.509Z,37
2017-01-28T22:22:02.803Z,35
2017-01-28T22:24:36.109Z,35
2017-01-28T22:27:08.901Z,110
2017-01-28T22:29:42.242Z,109
2017-01-28T22:32:14.756Z,29
2017-01-28T22:34:47.689Z,118
2017-01-28T22:37:20.242Z,89
2017-01-28T22:39:52.649Z,23
2017-01-28T22:42:25.034Z,105
2017-01-28T22:44:57.970Z,31
2017-01-28T22:47:30.383Z,27
2017-01-28T22:50:02.777Z,31
2017-01-28T22:52:35.180Z,34
2017-01-28T22:55:07.589Z,28
2017-01-28T22:57:40.468Z,44
2017-01-28T23:00:13.280Z,27
2017-01-28T23:02:45.708Z,31
2017-01-28T23:05:18.700Z,35
2017-01-28T23:07:51.173Z,26
2017-01-28T23:10:23.996Z,35
2017-01-28T23:12:56.851Z,27
2017-01-28T23:15:29.304Z,28
2017-01-28T23:18:02.590Z,43
2017-01-28T23:20:34.981Z,25
2017-01-28T23:23:07.472Z,28
2017-01-28T23:25:40.319Z,31
2017-01-28T23:28:13.170Z,30
2017-01-28T23:30:45.972Z,34
2017-01-28T23:33:18.398Z,29
2017-01-28T23:35:51.220Z,36
2017-01-28T23:38:23.615Z,35
2017-01-28T23:40:56.015Z,34
2017-01-28T23:43:28.396Z,32
2017-01-28T23:46:01.244Z,35
2017-01-28T23:48:34.512Z,30
2017-01-28T23:51:06.909Z,31
2017-01-28T23:53:39.556Z,36
2017-01-28T23:56:12.420Z,34
2017-01-28T23:58:44.824Z,32
